EDT,Max TemperatureF,Mean TemperatureF,Min TemperatureF,Max Dew PointF,MeanDew PointF,Min DewpointF,Max Humidity, Mean Humidity, Min Humidity, Max Sea Level PressureIn, Mean Sea Level PressureIn, Min Sea Level PressureIn, Max VisibilityMiles, Mean VisibilityMiles, Min VisibilityMiles, Max Wind SpeedMPH, Mean Wind SpeedMPH, Max Gust SpeedMPH,PrecipitationIn, CloudCover, Events, WindDirDegrees
2013-10-1,69,62,55,57,55,54,100,82,56,30.08,30.04,30.01,10,7,0,13,6,17,0.00,5,,214
2013-10-2,71,63,55,63,55,48,94,77,52,30.13,30.07,30.02,10,9,5,14,8,20,0.00,3,,249
2013-10-3,73,58,44,63,55,45,100,82,64,30.14,30.10,30.03,10,8,0,8,4,,0.01,4,Thunderstorm,180
2013-10-4,73,68,62,66,63,61,100,91,73,30.10,30.07,30.04,10,6,0,12,5,,0.11,6,Thunderstorm,229
2013-10-5,75,68,60,66,63,59,100,92,69,30.12,30.07,30.02,10,5,0,9,3,,0.01,7,Thunderstorm,169
2013-10-6,77,70,64,66,63,57,100,82,60,30.01,29.90,29.77,10,7,0,16,7,26,0.01,5,Thunderstorm,171
2013-10-7,71,58,44,57,47,37,94,75,58,30.09,29.83,29.70,10,10,5,24,13,32,0.55,7,,216
2013-10-8,59,46,33,48,42,34,100,79,51,30.33,30.26,30.10,10,6,0,8,4,,0.03,4,,318
2013-10-9,64,50,35,43,40,36,100,65,40,30.39,30.33,30.28,10,10,2,9,4,,0.00,0,,120
2013-10-10,64,50,35,43,37,34,93,60,36,30.28,30.22,30.15,10,10,5,9,4,,0.00,0,,49
2013-10-11,69,56,42,45,37,34,81,50,33,30.16,30.13,30.10,10,10,2,12,3,,0.00,3,,59
2013-10-12,73,55,37,54,44,34,93,59,43,30.21,30.16,30.12,10,10,10,12,3,,0.00,1,,136
2013-10-13,64,58,51,57,50,39,100,78,51,30.30,30.26,30.19,10,8,2,12,8,,0.40,7,,178
2013-10-14,59,50,42,55,46,37,100,81,58,30.36,30.31,30.28,10,9,2,16,7,20,0.07,6,,360
2013-10-15,62,54,46,54,50,39,100,89,71,30.27,30.14,29.98,10,9,0,12,5,16,0.00,5,,148
2013-10-16,60,54,48,57,52,46,100,88,72,29.98,29.90,29.81,10,9,5,14,10,21,0.37,7,,196
2013-10-17,57,50,42,48,45,41,100,85,63,29.90,29.83,29.72,10,8,0,18,6,23,0.17,5,,223
2013-10-18,55,50,44,45,40,36,93,74,51,29.94,29.89,29.79,10,9,4,20,12,25,0.01,7,,230
2013-10-19,53,46,39,43,38,36,87,74,58,29.92,29.80,29.67,10,10,7,20,9,33,0.16,5,,202
2013-10-20,51,44,37,39,36,34,93,76,54,29.99,29.91,29.82,10,10,5,21,13,29,0.05,6,,221
2013-10-21,60,50,39,45,35,32,82,57,34,29.99,29.92,29.82,10,10,7,21,10,30,0.00,2,,199
2013-10-22,46,40,35,45,33,27,93,72,53,29.87,29.83,29.79,10,10,3,17,11,26,0.08,7,,250
2013-10-23,42,38,33,36,32,27,93,83,70,29.82,29.76,29.70,10,10,2,17,7,28,0.04,7,,270
2013-10-24,35,34,32,32,30,28,93,87,81,30.03,29.91,29.81,10,6,0,16,9,26,0.22,8,,235
2013-10-25,42,37,32,36,31,27,100,81,53,30.21,30.14,30.03,10,8,0,18,9,25,0.19,8,,241
2013-10-26,41,37,33,34,26,23,93,64,53,30.12,29.91,29.81,10,10,9,23,13,36,0.01,7,,214
2013-10-27,39,37,35,36,32,28,93,81,65,30.05,29.97,29.86,10,10,5,14,8,20,0.15,7,,236
2013-10-28,46,40,33,37,31,25,81,75,65,30.32,30.19,30.05,10,10,10,10,6,,0.00,4,,313
2013-10-29,48,40,32,30,28,25,75,62,46,30.39,30.34,30.26,10,10,10,9,3,,0.00,5,,26
2013-10-30,57,47,37,39,34,28,100,69,44,30.25,30.17,30.09,10,10,10,8,3,,0.00,1,,185
2013-10-31,60,48,37,57,51,37,100,92,76,30.07,29.81,29.43,10,8,3,20,10,30,0.57,7,,187